createdAt,value
2018-04-12T00:01:50.256Z,22.33
2018-04-12T00:04:19.951Z,23.05
2018-04-12T00:07:10.531Z,23.25
2018-04-12T00:09:38.261Z,23.15
2018-04-12T00:12:05.821Z,22.15
2018-04-12T00:14:33.303Z,21.50
2018-04-12T00:17:01.577Z,21.05
2018-04-12T00:19:29.100Z,25.10
2018-04-12T00:21:57.437Z,28.55
2018-04-12T00:24:24.935Z,32.95
2018-04-12T00:26:52.493Z,34.13
2018-04-12T00:29:21.591Z,35.05
2018-04-12T00:31:49.158Z,34.22
2018-04-12T00:34:17.424Z,34.58
2018-04-12T00:36:44.922Z,34.40
2018-04-12T00:39:12.477Z,35.42
2018-04-12T00:41:40.052Z,36.00
2018-04-12T00:44:07.607Z,34.95
2018-04-12T00:46:35.115Z,33.83
2018-04-12T00:49:03.387Z,35.30
2018-04-12T00:51:30.944Z,34.63
2018-04-12T00:54:05.068Z,34.08
2018-04-12T00:56:32.588Z,35.30
2018-04-12T00:59:00.075Z,33.35
2018-04-12T01:01:27.559Z,34.72
2018-04-12T01:03:55.755Z,34.70
2018-04-12T01:06:23.709Z,34.00
2018-04-12T01:08:52.146Z,34.35
2018-04-12T01:11:19.629Z,34.15
2018-04-12T01:13:47.895Z,34.38
2018-04-12T01:16:27.489Z,34.95
2018-04-12T01:18:55.752Z,33.95
2018-04-12T01:21:23.304Z,33.17
2018-04-12T01:23:50.836Z,33.72
2018-04-12T01:26:18.430Z,35.20
2018-04-12T01:28:46.708Z,35.15
2018-04-12T01:31:20.050Z,33.88
2018-04-12T01:33:47.560Z,33.63
2018-04-12T01:36:35.160Z,33.72
2018-04-12T01:39:02.675Z,33.72
2018-04-12T01:41:30.946Z,33.73
2018-04-12T01:44:01.607Z,33.83
2018-04-12T01:46:32.043Z,34.20
2018-04-12T01:48:59.778Z,32.63
2018-04-12T01:51:27.382Z,33.58
2018-04-12T01:53:59.028Z,34.95
2018-04-12T01:56:26.633Z,34.38
2018-04-12T01:58:54.892Z,34.60
2018-04-12T02:01:22.385Z,32.92
2018-04-12T02:03:50.688Z,34.27
2018-04-12T02:06:18.182Z,33.20
2018-04-12T02:08:45.673Z,34.30
2018-04-12T02:11:16.400Z,32.38
2018-04-12T02:13:44.570Z,34.75
2018-04-12T02:16:12.181Z,34.58
2018-04-12T02:18:39.966Z,35.35
2018-04-12T02:21:08.255Z,35.85
2018-04-12T02:23:35.784Z,35.88
2018-04-12T02:26:03.275Z,36.15
2018-04-12T02:28:30.818Z,35.95
2018-04-12T02:30:58.412Z,35.13
2018-04-12T02:33:28.631Z,35.50
2018-04-12T02:35:56.352Z,35.50
2018-04-12T02:38:23.888Z,34.67
2018-04-12T02:40:51.387Z,36.50
2018-04-12T02:43:34.802Z,35.87
2018-04-12T02:46:11.817Z,35.67
2018-04-12T02:48:44.223Z,36.35
2018-04-12T02:51:13.931Z,37.65
2018-04-12T02:53:43.646Z,37.30
2018-04-12T02:56:12.683Z,38.67
2018-04-12T02:58:45.376Z,39.90
2018-04-12T03:01:14.654Z,41.22
2018-04-12T03:03:42.891Z,42.38
2018-04-12T03:09:15.517Z,42.58
2018-04-12T03:11:43.962Z,42.17
2018-04-12T03:14:11.734Z,44.30
2018-04-12T03:16:44.424Z,42.87
2018-04-12T03:19:13.839Z,43.30
2018-04-12T03:21:41.347Z,44.20
2018-04-12T03:24:10.654Z,43.97
2018-04-12T03:26:38.221Z,42.60
2018-04-12T03:29:05.711Z,44.05
2018-04-12T03:31:33.186Z,44.28
2018-04-12T03:34:00.710Z,45.85
2018-04-12T03:36:28.432Z,46.00
2018-04-12T03:38:56.703Z,45.33
2018-04-12T03:41:24.972Z,46.40
2018-04-12T03:43:52.582Z,45.78
2018-04-12T03:46:20.163Z,46.58
2018-04-12T03:48:47.679Z,46.47
2018-04-12T03:51:15.256Z,47.17
2018-04-12T03:53:43.506Z,48.25
2018-04-12T03:56:11.044Z,46.90
2018-04-12T03:58:38.584Z,47.50
2018-04-12T04:01:06.075Z,46.75
2018-04-12T04:03:33.663Z,45.53
2018-04-12T04:06:01.184Z,47.97
2018-04-12T04:08:28.758Z,43.78
2018-04-12T04:10:56.963Z,45.40
2018-04-12T04:13:25.043Z,45.72
2018-04-12T04:16:04.961Z,45.85
2018-04-12T04:18:46.967Z,45.88
2018-04-12T04:21:26.146Z,43.63
2018-04-12T04:23:56.703Z,46.88
2018-04-12T04:26:27.899Z,45.25
2018-04-12T04:28:56.179Z,44.58
2018-04-12T04:37:11.264Z,44.58
2018-04-12T04:39:47.321Z,44.10
2018-04-12T04:42:25.280Z,43.72
2018-04-12T04:44:53.612Z,44.20
2018-04-12T04:59:45.188Z,42.28
2018-04-12T05:02:21.580Z,41.20
2018-04-12T05:05:02.904Z,42.80
2018-04-12T05:07:35.020Z,42.85
2018-04-12T05:13:15.759Z,40.05
2018-04-12T05:18:41.432Z,40.05
2018-04-12T05:21:10.832Z,39.72
2018-04-12T05:23:39.171Z,39.37
2018-04-12T05:26:06.728Z,38.53
2018-04-12T05:28:34.235Z,38.45
2018-04-12T05:31:04.093Z,37.83
2018-04-12T05:33:31.822Z,36.75
2018-04-12T05:36:15.771Z,34.78
2018-04-12T05:38:48.976Z,35.25
2018-04-12T05:41:20.123Z,33.70
2018-04-12T05:44:01.940Z,34.22
2018-04-12T05:46:30.160Z,34.67
2018-04-12T05:48:57.708Z,33.88
2018-04-12T05:51:25.320Z,34.20
2018-04-12T05:54:14.630Z,32.65
2018-04-12T05:56:42.214Z,32.97
2018-04-12T05:59:10.645Z,31.15
2018-04-12T06:01:40.294Z,32.80
2018-04-12T06:04:07.854Z,32.58
2018-04-12T06:06:36.104Z,32.85
2018-04-12T06:09:14.838Z,31.60
2018-04-12T06:11:59.559Z,33.03
2018-04-12T06:14:38.869Z,32.05
2018-04-12T06:17:10.658Z,32.40
2018-04-12T06:19:41.681Z,32.17
2018-04-12T06:22:10.043Z,31.33
2018-04-12T06:27:32.701Z,29.70
2018-04-12T06:30:00.329Z,30.02
2018-04-12T06:32:30.690Z,30.23
2018-04-12T06:34:58.209Z,30.85
2018-04-12T06:37:28.552Z,31.25
2018-04-12T06:39:56.032Z,31.35
2018-04-12T06:42:23.536Z,31.33
2018-04-12T06:45:02.109Z,33.00
2018-04-12T06:47:31.575Z,31.35
2018-04-12T06:50:14.427Z,30.37
2018-04-12T06:52:42.140Z,30.90
2018-04-12T06:55:09.665Z,32.50
2018-04-12T06:57:37.170Z,32.22
2018-04-12T07:00:04.682Z,31.67
2018-04-12T07:02:48.792Z,30.65
2018-04-12T07:05:17.710Z,30.12
2018-04-12T07:07:48.876Z,29.95
2018-04-12T07:10:19.252Z,27.83
2018-04-12T07:12:47.004Z,28.45
2018-04-12T07:15:18.576Z,28.12
2018-04-12T07:17:48.470Z,27.80
2018-04-12T07:20:17.972Z,26.08
2018-04-12T07:22:54.229Z,26.20
2018-04-12T07:25:24.810Z,26.58
2018-04-12T07:27:58.332Z,27.08
2018-04-12T07:33:20.717Z,28.42
2018-04-12T07:35:50.300Z,26.85
2018-04-12T07:38:19.616Z,26.92
2018-04-12T07:40:47.539Z,27.17
2018-04-12T07:43:19.959Z,28.40
2018-04-12T07:45:51.022Z,23.15
2018-04-12T07:48:19.391Z,23.08
2018-04-12T07:50:51.047Z,17.15
2018-04-12T07:53:19.473Z,15.02
2018-04-12T07:55:52.046Z,14.82
2018-04-12T07:58:20.715Z,14.52
2018-04-12T08:00:48.635Z,14.02
2018-04-12T08:03:17.776Z,13.62
2018-04-12T08:08:48.462Z,12.85
2018-04-12T08:11:18.088Z,12.63
2018-04-12T08:13:45.960Z,11.95
2018-04-12T08:16:14.563Z,11.07
2018-04-12T08:18:42.292Z,11.18
2018-04-12T08:21:10.459Z,10.40
2018-04-12T08:23:38.060Z,10.33
2018-04-12T08:26:05.535Z,9.93
2018-04-12T08:28:33.894Z,10.37
2018-04-12T08:31:03.195Z,10.30
2018-04-12T08:33:34.142Z,10.50
2018-04-12T08:36:02.536Z,10.07
2018-04-12T08:38:30.041Z,10.45
2018-04-12T08:40:57.524Z,10.45
2018-04-12T08:43:25.031Z,10.15
2018-04-12T08:45:52.676Z,9.98
2018-04-12T08:48:20.919Z,10.40
2018-04-12T08:51:03.201Z,9.73
2018-04-12T08:53:30.830Z,10.73
2018-04-12T08:56:00.343Z,10.03
2018-04-12T08:58:33.960Z,9.68
2018-04-12T09:01:01.697Z,9.20
2018-04-12T09:03:29.204Z,8.45
2018-04-12T09:05:57.619Z,7.75
2018-04-12T09:08:25.189Z,7.65
2018-04-12T09:10:52.878Z,6.35
2018-04-12T09:13:21.201Z,4.82
2018-04-12T09:15:51.779Z,5.43
2018-04-12T09:18:33.048Z,6.50
2018-04-12T09:21:04.270Z,6.10
2018-04-12T09:23:33.083Z,4.53
2018-04-12T09:26:03.405Z,3.67
2018-04-12T09:28:33.034Z,2.80
2018-04-12T09:31:01.826Z,2.70
2018-04-12T09:33:32.957Z,3.15
2018-04-12T09:36:00.476Z,3.25
2018-04-12T09:38:32.540Z,3.10
2018-04-12T09:41:01.689Z,3.25
2018-04-12T09:43:32.904Z,3.05
2018-04-12T09:46:00.443Z,3.00
2018-04-12T09:48:31.734Z,3.35
2018-04-12T09:51:07.679Z,3.12
2018-04-12T09:53:36.369Z,3.22
2018-04-12T09:56:04.028Z,3.33
2018-04-12T09:58:36.569Z,3.33
2018-04-12T10:03:58.158Z,3.50
2018-04-12T10:06:39.044Z,3.20
2018-04-12T10:12:02.881Z,2.95
2018-04-12T10:14:33.259Z,3.47
2018-04-12T10:17:01.563Z,2.80
2018-04-12T10:19:34.875Z,3.15
2018-04-12T10:22:03.338Z,2.97
2018-04-12T10:24:34.356Z,2.80
2018-04-12T10:27:03.894Z,3.22
2018-04-12T10:29:33.413Z,2.50
2018-04-12T10:32:03.672Z,2.80
2018-04-12T10:34:32.257Z,3.20
2018-04-12T10:43:02.123Z,2.70
2018-04-12T13:32:03.509Z,2.00
2018-04-12T13:34:32.820Z,2.00
2018-04-12T13:37:17.932Z,1.73
2018-04-12T13:39:53.650Z,1.73
2018-04-12T13:42:31.941Z,1.80
2018-04-12T13:45:03.267Z,1.92
2018-04-12T13:47:37.848Z,1.80
2018-04-12T13:50:06.361Z,1.58
2018-04-12T13:53:01.482Z,1.87
2018-04-12T13:55:35.079Z,1.77
2018-04-12T14:06:58.837Z,1.33
2018-04-12T14:09:35.727Z,56.73
2018-04-12T14:12:03.297Z,192.43
2018-04-12T14:17:25.539Z,41.97
2018-04-12T14:20:09.322Z,2.28
2018-04-12T14:23:01.565Z,1.20
2018-04-12T14:25:35.352Z,13.77
2018-04-12T14:28:03.992Z,1.17
2018-04-12T14:30:32.642Z,2.33
2018-04-12T14:33:00.231Z,1.50
2018-04-12T14:35:29.775Z,1.13
2018-04-12T14:37:57.550Z,1.42
2018-04-12T14:40:26.533Z,1.95
2018-04-12T14:42:54.132Z,1.97
2018-04-12T14:45:22.681Z,1.20
2018-04-12T14:47:50.296Z,1.17
2018-04-12T14:50:18.192Z,1.30
2018-04-12T14:52:55.002Z,1.30
2018-04-12T14:55:31.691Z,1.45
2018-04-12T14:58:00.020Z,1.20
2018-04-12T15:00:27.670Z,1.62
2018-04-12T15:02:55.387Z,1.30
2018-04-12T15:08:02.527Z,1.40
2018-04-12T15:10:32.076Z,1.50
2018-04-12T15:13:05.453Z,1.30
2018-04-12T15:15:34.275Z,1.52
2018-04-12T15:18:05.210Z,2.07
2018-04-12T15:20:35.136Z,1.90
2018-04-12T15:23:03.695Z,1.60
2018-04-12T15:25:37.393Z,1.80
2018-04-12T15:28:06.278Z,1.60
2018-04-12T15:30:36.245Z,1.55
2018-04-12T15:33:05.181Z,1.52
2018-04-12T15:35:34.894Z,1.80
2018-04-12T15:38:14.627Z,2.00
2018-04-12T15:40:47.962Z,1.85
2018-04-12T15:43:15.771Z,2.03
2018-04-12T15:45:46.465Z,1.80
2018-04-12T15:48:17.143Z,2.58
2018-04-12T15:50:51.358Z,1.50
2018-04-12T16:02:17.613Z,1.90
2018-04-12T16:04:46.009Z,1.75
2018-04-12T16:10:18.381Z,1.60
2018-04-12T16:21:46.298Z,4.25
2018-04-12T16:24:16.311Z,2.10
2018-04-12T16:26:47.526Z,1.80
2018-04-12T16:29:16.071Z,1.90
2018-04-12T16:31:45.761Z,2.00
2018-04-12T16:34:16.813Z,1.80
2018-04-12T16:39:48.318Z,2.10
2018-04-12T16:42:16.018Z,2.03
2018-04-12T16:44:47.264Z,1.73
2018-04-12T16:47:16.514Z,1.97
2018-04-12T16:49:47.137Z,2.33
2018-04-12T16:52:16.455Z,2.05
2018-04-12T16:54:46.201Z,2.25
2018-04-12T17:00:17.457Z,2.20
2018-04-12T17:02:48.577Z,2.20
2018-04-12T17:05:20.419Z,2.37
2018-04-12T17:13:48.954Z,2.10
2018-04-12T17:22:17.858Z,2.10
2018-04-12T17:24:47.094Z,2.10
2018-04-12T17:30:19.838Z,1.87
2018-04-12T17:41:46.447Z,2.00
2018-04-12T17:44:19.108Z,2.25
2018-04-12T17:49:48.969Z,2.00
2018-04-12T17:52:18.111Z,2.08
2018-04-12T17:54:45.963Z,1.98
2018-04-12T17:57:16.828Z,2.03
2018-04-12T18:02:42.794Z,2.10
2018-04-12T18:05:16.074Z,2.03
2018-04-12T18:10:50.507Z,1.80
2018-04-12T18:13:20.791Z,1.90
2018-04-12T18:18:48.239Z,2.47
2018-04-12T18:21:15.851Z,2.10
2018-04-12T18:23:49.055Z,2.55
2018-04-12T18:26:17.466Z,2.37
2018-04-12T18:28:46.742Z,2.83
2018-04-12T18:31:18.864Z,2.40
2018-04-12T18:33:46.476Z,2.72
2018-04-12T18:42:16.320Z,2.80
2018-04-12T18:44:51.117Z,2.80
2018-04-12T18:47:19.668Z,2.78
2018-04-12T18:49:47.418Z,2.62
2018-04-12T18:52:15.771Z,2.40
2018-04-12T18:54:43.329Z,2.85
2018-04-12T18:57:11.739Z,3.22
2018-04-12T18:59:39.279Z,3.67
2018-04-12T19:02:06.760Z,3.37
2018-04-12T19:04:37.252Z,1.52
2018-04-12T19:07:10.978Z,1.40
2018-04-12T19:09:39.439Z,3.10
2018-04-12T19:12:06.955Z,1.62
2018-04-12T19:14:34.461Z,1.40
2018-04-12T19:17:20.913Z,1.50
2018-04-12T19:19:50.529Z,1.52
2018-04-12T19:22:32.451Z,1.40
2018-04-12T19:25:00.767Z,1.30
2018-04-12T19:27:28.337Z,1.40
2018-04-12T19:29:55.827Z,1.70
2018-04-12T19:32:24.292Z,1.80
2018-04-12T19:34:53.993Z,1.60
2018-04-12T19:37:23.942Z,1.30
2018-04-12T19:39:57.816Z,1.00
2018-04-12T19:42:27.415Z,0.80
2018-04-12T19:44:55.716Z,1.20
2018-04-12T19:47:46.227Z,1.12
2018-04-12T19:50:13.820Z,1.10
2018-04-12T19:55:34.377Z,1.40
2018-04-12T19:58:02.121Z,1.50
2018-04-12T20:00:32.573Z,1.27
2018-04-12T20:03:01.145Z,2.40
2018-04-12T20:05:54.332Z,1.70
2018-04-12T20:08:24.025Z,1.40
2018-04-12T20:11:00.049Z,1.40
2018-04-12T20:13:30.574Z,1.70
2018-04-12T20:21:41.184Z,3.30
2018-04-12T20:24:10.904Z,2.22
2018-04-12T20:26:38.610Z,2.17
2018-04-12T20:29:06.339Z,1.75
2018-04-12T20:31:34.135Z,1.90
2018-04-12T20:34:05.111Z,1.83
2018-04-12T20:36:32.855Z,1.40
2018-04-12T20:39:00.514Z,1.60
2018-04-12T20:41:43.195Z,1.50
2018-04-12T20:44:10.931Z,1.40
2018-04-12T20:46:38.664Z,1.50
2018-04-12T20:49:06.631Z,1.52
2018-04-12T20:51:34.664Z,1.95
2018-04-12T20:54:02.373Z,1.95
2018-04-12T20:56:31.837Z,2.10
2018-04-12T20:59:13.105Z,2.00
2018-04-12T21:01:41.832Z,2.03
2018-04-12T21:04:10.568Z,1.90
2018-04-12T21:06:51.473Z,2.12
2018-04-12T21:09:19.152Z,2.00
2018-04-12T21:11:52.722Z,2.12
2018-04-12T21:14:23.073Z,2.00
2018-04-12T21:17:03.872Z,1.65
2018-04-12T21:19:32.317Z,2.20
2018-04-12T21:22:00.467Z,2.10
2018-04-12T21:24:45.365Z,2.10
2018-04-12T21:30:31.382Z,2.13
2018-04-12T21:32:59.088Z,2.28
2018-04-12T21:35:27.541Z,1.87
2018-04-12T21:37:55.171Z,1.90
2018-04-12T21:40:22.818Z,1.55
2018-04-12T21:43:07.056Z,1.80
2018-04-12T21:45:35.653Z,1.60
2018-04-12T21:48:03.420Z,1.58
2018-04-12T21:53:10.570Z,1.70
2018-04-12T21:55:38.417Z,1.70
2018-04-12T21:58:06.684Z,1.77
2018-04-12T22:00:34.175Z,1.92
2018-04-12T22:03:01.665Z,1.90
2018-04-12T22:05:29.889Z,1.80
2018-04-12T22:07:58.163Z,1.87
2018-04-12T22:10:25.657Z,2.00
2018-04-12T22:12:54.130Z,2.00
2018-04-12T22:15:21.634Z,2.00
2018-04-12T22:17:49.122Z,2.20
2018-04-12T22:20:16.987Z,2.10
2018-04-12T22:22:44.480Z,2.00
2018-04-12T22:25:12.743Z,2.22
2018-04-12T22:27:40.236Z,2.20
2018-04-12T22:30:09.498Z,2.20
2018-04-12T22:32:37.114Z,2.30
2018-04-12T22:35:04.603Z,2.03
2018-04-12T22:37:32.850Z,1.98
2018-04-12T22:40:00.379Z,1.80
2018-04-12T22:42:28.194Z,1.90
2018-04-12T22:44:55.700Z,1.75
2018-04-12T22:47:23.944Z,2.12
2018-04-12T22:49:51.400Z,2.20
2018-04-12T22:52:18.853Z,1.80
2018-04-12T22:54:46.298Z,1.90
2018-04-12T22:57:20.518Z,2.30
2018-04-12T23:00:14.760Z,2.75
2018-04-12T23:02:42.309Z,2.03
2018-04-12T23:05:09.801Z,2.08
2018-04-12T23:07:37.298Z,1.67
2018-04-12T23:10:04.767Z,1.52
2018-04-12T23:12:32.345Z,1.83
2018-04-12T23:14:59.869Z,1.90
2018-04-12T23:17:27.344Z,1.90
2018-04-12T23:19:55.720Z,1.60
2018-04-12T23:22:23.246Z,1.67
2018-04-12T23:24:50.802Z,1.67
2018-04-12T23:27:18.663Z,1.50
2018-04-12T23:29:46.177Z,1.77
2018-04-12T23:32:13.655Z,2.05
2018-04-12T23:34:41.899Z,1.80
2018-04-12T23:37:09.385Z,1.70
2018-04-12T23:39:36.872Z,1.70
2018-04-12T23:42:04.392Z,1.73
2018-04-12T23:44:31.923Z,1.80
2018-04-12T23:47:13.658Z,1.90
2018-04-12T23:49:41.347Z,1.90
2018-04-12T23:52:08.847Z,2.00
2018-04-12T23:54:36.517Z,2.08
2018-04-12T23:57:04.134Z,1.92
2018-04-12T23:59:31.610Z,1.80
